Terminal Aerodrome Forecast
Issued by NWS Twin Cities, MN

Home | Current Version | Previous Version | Text Only | Print | Product List | Glossary On
Versions: 1 2 3 4 5 6 7 8 9 10 11 12 13 14 15 16 17 18
446
FTUS43 KMPX 180712 AAA
TAFEAU
TAF AMD
KEAU 180712Z 1807/1906 36004KT 5SM BR OVC007
     FM181200 34006KT P6SM OVC008
     FM181600 33008KT P6SM BKN010
     FM181800 33009KT P6SM SCT010
     FM182100 31013G22KT P6SM SKC
     FM190000 31012KT P6SM BKN045
     FM190500 31009KT P6SM SCT200=

USA.gov is the U.S. government's official web portal to all federal, state and local government web resources and services.